Virden, Illinois
Current Conditions -  °F | °C
As of 6:15 AM on Tuesday 27 Jan 2015 (Local Time) from KTAZ Reporting Station
Haze Haze  
Wind Chill: 23°   Ceiling: Unl
Heat Index: 30°   Visibility: 4mi
Dew Point: 28°   Wind: 7mph
Humidity: 93%   Direction: 360°N
Pressure: 30.03"   Gusts: NA
Location:  39.5°N, 89.77°W
Report Text: KTAZ 271215Z AUTO 36006KT 4SM BR SCT009 M01/M02 A3003 RMK AO2
Loading
Personal Weather Stations






























Interactive Weather Map New forecast layout! Learn more

10-Day Weather Forecast

Advertisements
Track Severe Weather on mobile